sensor_id;sensor_type;location;lat;lon;timestamp;pressure;altitude;pressure_sealevel;temperature;humidity
76074;BME280;64776;42.636;24.358;2023-06-22T00:01:41;90705.63;;;13.51;80.15
76074;BME280;64776;42.636;24.358;2023-06-22T00:04:41;90708.47;;;13.42;80.49
76074;BME280;64776;42.636;24.358;2023-06-22T00:07:44;90715.78;;;13.41;80.38
76074;BME280;64776;42.636;24.358;2023-06-22T00:10:45;90706.97;;;13.35;80.60
76074;BME280;64776;42.636;24.358;2023-06-22T00:13:46;90709.91;;;13.37;80.28
76074;BME280;64776;42.636;24.358;2023-06-22T00:16:47;90718.75;;;13.43;80.73
76074;BME280;64776;42.636;24.358;2023-06-22T00:19:48;90714.09;;;13.44;81.02
76074;BME280;64776;42.636;24.358;2023-06-22T00:22:50;90713.31;;;13.38;80.53
76074;BME280;64776;42.636;24.358;2023-06-22T00:25:51;90713.75;;;13.31;80.85
76074;BME280;64776;42.636;24.358;2023-06-22T00:28:51;90716.06;;;13.18;81.23
76074;BME280;64776;42.636;24.358;2023-06-22T00:31:52;90720.09;;;13.07;81.61
76074;BME280;64776;42.636;24.358;2023-06-22T00:34:53;90710.19;;;12.93;83.28
76074;BME280;64776;42.636;24.358;2023-06-22T00:37:55;90708.59;;;12.81;83.86
76074;BME280;64776;42.636;24.358;2023-06-22T00:40:56;90708.59;;;12.81;84.00
76074;BME280;64776;42.636;24.358;2023-06-22T00:43:57;90714.88;;;12.78;83.75
76074;BME280;64776;42.636;24.358;2023-06-22T00:46:58;90711.56;;;12.83;83.75
76074;BME280;64776;42.636;24.358;2023-06-22T00:49:59;90713.00;;;12.84;83.83
76074;BME280;64776;42.636;24.358;2023-06-22T00:53:03;90709.13;;;12.65;84.37
76074;BME280;64776;42.636;24.358;2023-06-22T00:56:05;90708.59;;;12.61;84.72
76074;BME280;64776;42.636;24.358;2023-06-22T00:59:06;90701.94;;;12.71;84.65
76074;BME280;64776;42.636;24.358;2023-06-22T01:02:07;90705.66;;;12.79;83.96
76074;BME280;64776;42.636;24.358;2023-06-22T01:05:08;90703.94;;;12.56;83.89
76074;BME280;64776;42.636;24.358;2023-06-22T01:08:18;90705.06;;;12.50;84.45
76074;BME280;64776;42.636;24.358;2023-06-22T01:11:26;90701.75;;;12.55;84.52
76074;BME280;64776;42.636;24.358;2023-06-22T01:14:36;90697.09;;;12.55;84.32
76074;BME280;64776;42.636;24.358;2023-06-22T01:17:40;90693.75;;;12.60;84.35
76074;BME280;64776;42.636;24.358;2023-06-22T01:20:43;90688.94;;;12.64;84.09
76074;BME280;64776;42.636;24.358;2023-06-22T01:23:56;90691.75;;;12.55;84.25
76074;BME280;64776;42.636;24.358;2023-06-22T01:27:08;90690.16;;;12.43;84.41
76074;BME280;64776;42.636;24.358;2023-06-22T01:30:16;90689.41;;;12.43;83.94
76074;BME280;64776;42.636;24.358;2023-06-22T01:33:17;90698.34;;;12.34;84.97
76074;BME280;64776;42.636;24.358;2023-06-22T01:36:18;90693.56;;;12.44;84.92
76074;BME280;64776;42.636;24.358;2023-06-22T01:39:21;90687.63;;;12.54;84.45
76074;BME280;64776;42.636;24.358;2023-06-22T01:42:23;90684.81;;;12.43;84.40
76074;BME280;64776;42.636;24.358;2023-06-22T01:45:27;90694.97;;;12.39;84.53
76074;BME280;64776;42.636;24.358;2023-06-22T01:48:28;90688.28;;;12.29;84.96
76074;BME280;64776;42.636;24.358;2023-06-22T01:51:29;90684.88;;;12.28;84.89
76074;BME280;64776;42.636;24.358;2023-06-22T01:54:30;90687.47;;;12.23;85.44
76074;BME280;64776;42.636;24.358;2023-06-22T01:57:31;90686.09;;;12.27;85.33
76074;BME280;64776;42.636;24.358;2023-06-22T02:00:37;90691.91;;;12.26;84.80
76074;BME280;64776;42.636;24.358;2023-06-22T02:03:44;90694.75;;;12.22;84.74
76074;BME280;64776;42.636;24.358;2023-06-22T02:06:51;90696.69;;;12.22;84.81
76074;BME280;64776;42.636;24.358;2023-06-22T02:09:58;90700.13;;;12.22;84.60
76074;BME280;64776;42.636;24.358;2023-06-22T02:13:00;90708.13;;;12.22;84.01
76074;BME280;64776;42.636;24.358;2023-06-22T02:16:03;90709.81;;;12.20;84.31
76074;BME280;64776;42.636;24.358;2023-06-22T02:19:04;90709.25;;;12.16;84.37
76074;BME280;64776;42.636;24.358;2023-06-22T02:22:05;90714.06;;;12.12;84.74
76074;BME280;64776;42.636;24.358;2023-06-22T02:25:06;90710.78;;;12.02;85.08
76074;BME280;64776;42.636;24.358;2023-06-22T02:28:07;90714.63;;;12.16;84.98
76074;BME280;64776;42.636;24.358;2023-06-22T02:31:09;90716.56;;;12.15;85.13
76074;BME280;64776;42.636;24.358;2023-06-22T02:34:10;90717.44;;;12.07;84.72
76074;BME280;64776;42.636;24.358;2023-06-22T02:37:11;90709.38;;;11.87;84.32
76074;BME280;64776;42.636;24.358;2023-06-22T02:40:12;90712.16;;;11.78;85.46
76074;BME280;64776;42.636;24.358;2023-06-22T02:43:13;90716.19;;;11.88;85.39
76074;BME280;64776;42.636;24.358;2023-06-22T02:46:15;90720.06;;;11.87;85.90
76074;BME280;64776;42.636;24.358;2023-06-22T02:49:16;90711.50;;;11.83;85.18
76074;BME280;64776;42.636;24.358;2023-06-22T02:52:17;90706.81;;;11.78;85.32
76074;BME280;64776;42.636;24.358;2023-06-22T02:55:17;90707.16;;;11.85;84.96
76074;BME280;64776;42.636;24.358;2023-06-22T02:58:19;90703.13;;;11.75;85.58
76074;BME280;64776;42.636;24.358;2023-06-22T03:01:21;90701.00;;;11.79;85.69
76074;BME280;64776;42.636;24.358;2023-06-22T03:04:22;90697.56;;;11.79;85.68
76074;BME280;64776;42.636;24.358;2023-06-22T03:07:22;90707.44;;;11.73;86.25
76074;BME280;64776;42.636;24.358;2023-06-22T03:10:23;90715.28;;;11.76;86.31
76074;BME280;64776;42.636;24.358;2023-06-22T03:13:24;90716.75;;;11.77;86.49
76074;BME280;64776;42.636;24.358;2023-06-22T03:16:26;90712.06;;;11.87;86.22
76074;BME280;64776;42.636;24.358;2023-06-22T03:19:27;90708.47;;;11.75;85.61
76074;BME280;64776;42.636;24.358;2023-06-22T03:22:28;90702.53;;;11.86;85.20
76074;BME280;64776;42.636;24.358;2023-06-22T03:25:29;90701.34;;;11.87;85.02
76074;BME280;64776;42.636;24.358;2023-06-22T03:28:29;90707.16;;;11.85;85.02
76074;BME280;64776;42.636;24.358;2023-06-22T03:31:31;90702.81;;;11.88;84.82
76074;BME280;64776;42.636;24.358;2023-06-22T03:34:32;90710.31;;;12.04;85.09
76074;BME280;64776;42.636;24.358;2023-06-22T03:37:33;90710.72;;;11.97;84.61
76074;BME280;64776;42.636;24.358;2023-06-22T03:40:34;90719.13;;;11.90;85.04
76074;BME280;64776;42.636;24.358;2023-06-22T03:43:35;90728.72;;;11.96;85.42
76074;BME280;64776;42.636;24.358;2023-06-22T03:46:37;90729.53;;;12.02;85.34
76074;BME280;64776;42.636;24.358;2023-06-22T03:49:38;90729.59;;;12.08;85.47
76074;BME280;64776;42.636;24.358;2023-06-22T03:52:39;90735.47;;;12.12;86.31
76074;BME280;64776;42.636;24.358;2023-06-22T03:55:48;90732.09;;;12.32;86.14
76074;BME280;64776;42.636;24.358;2023-06-22T03:58:49;90730.97;;;12.38;86.48
76074;BME280;64776;42.636;24.358;2023-06-22T04:01:51;90727.16;;;12.65;86.25
76074;BME280;64776;42.636;24.358;2023-06-22T04:04:52;90724.31;;;12.94;85.69
76074;BME280;64776;42.636;24.358;2023-06-22T04:07:53;90730.47;;;13.00;83.63
76074;BME280;64776;42.636;24.358;2023-06-22T04:10:53;90731.88;;;13.16;83.70
76074;BME280;64776;42.636;24.358;2023-06-22T04:13:54;90737.34;;;13.27;82.80
76074;BME280;64776;42.636;24.358;2023-06-22T04:16:57;90736.50;;;13.41;82.98
76074;BME280;64776;42.636;24.358;2023-06-22T04:19:58;90726.34;;;13.50;82.30
76074;BME280;64776;42.636;24.358;2023-06-22T04:22:59;90726.00;;;13.68;83.74
76074;BME280;64776;42.636;24.358;2023-06-22T04:26:00;90715.19;;;13.88;82.77
76074;BME280;64776;42.636;24.358;2023-06-22T04:29:01;90711.13;;;14.04;83.00
76074;BME280;64776;42.636;24.358;2023-06-22T04:32:04;90712.47;;;14.20;83.36
76074;BME280;64776;42.636;24.358;2023-06-22T04:35:06;90711.88;;;14.41;82.89
76074;BME280;64776;42.636;24.358;2023-06-22T04:38:07;90709.28;;;14.63;82.32
76074;BME280;64776;42.636;24.358;2023-06-22T04:41:08;90712.50;;;14.73;81.45
76074;BME280;64776;42.636;24.358;2023-06-22T04:44:09;90711.31;;;14.85;81.83
76074;BME280;64776;42.636;24.358;2023-06-22T04:47:11;90716.28;;;15.14;80.83
76074;BME280;64776;42.636;24.358;2023-06-22T04:50:12;90708.47;;;15.16;80.19
76074;BME280;64776;42.636;24.358;2023-06-22T04:53:13;90707.47;;;15.08;81.47
76074;BME280;64776;42.636;24.358;2023-06-22T04:56:14;90706.53;;;15.22;80.94
76074;BME280;64776;42.636;24.358;2023-06-22T04:59:15;90707.56;;;15.53;80.03
76074;BME280;64776;42.636;24.358;2023-06-22T05:02:17;90710.50;;;15.71;80.04
76074;BME280;64776;42.636;24.358;2023-06-22T05:05:18;90715.16;;;15.87;79.53
76074;BME280;64776;42.636;24.358;2023-06-22T05:08:19;90715.38;;;16.06;79.52
76074;BME280;64776;42.636;24.358;2023-06-22T05:11:19;90710.94;;;16.30;79.03
76074;BME280;64776;42.636;24.358;2023-06-22T05:14:20;90706.75;;;16.57;78.06
76074;BME280;64776;42.636;24.358;2023-06-22T05:17:22;90708.84;;;16.86;77.08
76074;BME280;64776;42.636;24.358;2023-06-22T05:20:23;90715.81;;;17.17;76.47
76074;BME280;64776;42.636;24.358;2023-06-22T05:23:24;90710.00;;;17.48;75.36
76074;BME280;64776;42.636;24.358;2023-06-22T05:26:25;90715.63;;;17.56;75.93
76074;BME280;64776;42.636;24.358;2023-06-22T05:29:26;90711.13;;;17.69;75.93
76074;BME280;64776;42.636;24.358;2023-06-22T05:32:28;90714.16;;;17.90;74.96
76074;BME280;64776;42.636;24.358;2023-06-22T05:35:29;90714.44;;;18.16;73.74
76074;BME280;64776;42.636;24.358;2023-06-22T05:38:30;90713.66;;;18.21;74.08
76074;BME280;64776;42.636;24.358;2023-06-22T05:41:31;90714.50;;;18.35;73.85
76074;BME280;64776;42.636;24.358;2023-06-22T05:44:32;90702.16;;;18.45;73.88
76074;BME280;64776;42.636;24.358;2023-06-22T05:47:34;90711.56;;;18.62;74.00
76074;BME280;64776;42.636;24.358;2023-06-22T05:50:35;90709.75;;;18.71;73.36
76074;BME280;64776;42.636;24.358;2023-06-22T05:53:36;90710.91;;;18.99;73.41
76074;BME280;64776;42.636;24.358;2023-06-22T05:56:37;90705.22;;;19.21;71.99
76074;BME280;64776;42.636;24.358;2023-06-22T05:59:37;90713.13;;;19.57;70.84
76074;BME280;64776;42.636;24.358;2023-06-22T06:02:40;90706.81;;;19.86;70.85
76074;BME280;64776;42.636;24.358;2023-06-22T06:05:40;90710.13;;;20.10;69.64
76074;BME280;64776;42.636;24.358;2023-06-22T06:08:41;90703.66;;;20.45;69.30
76074;BME280;64776;42.636;24.358;2023-06-22T06:11:42;90701.59;;;20.77;68.89
76074;BME280;64776;42.636;24.358;2023-06-22T06:14:43;90707.06;;;21.03;67.78
76074;BME280;64776;42.636;24.358;2023-06-22T06:17:49;90708.50;;;21.31;66.53
76074;BME280;64776;42.636;24.358;2023-06-22T06:20:50;90699.13;;;21.52;62.86
76074;BME280;64776;42.636;24.358;2023-06-22T06:23:50;90707.97;;;21.66;62.72
76074;BME280;64776;42.636;24.358;2023-06-22T06:26:51;90699.38;;;21.75;60.15
76074;BME280;64776;42.636;24.358;2023-06-22T06:29:52;90697.44;;;21.96;61.11
76074;BME280;64776;42.636;24.358;2023-06-22T06:32:54;90696.53;;;22.14;57.84
76074;BME280;64776;42.636;24.358;2023-06-22T06:35:55;90702.75;;;22.43;58.75
76074;BME280;64776;42.636;24.358;2023-06-22T06:38:56;90700.69;;;22.56;58.07
76074;BME280;64776;42.636;24.358;2023-06-22T06:41:56;90702.34;;;22.59;57.20
76074;BME280;64776;42.636;24.358;2023-06-22T06:44:57;90718.88;;;22.61;56.51
76074;BME280;64776;42.636;24.358;2023-06-22T06:47:59;90716.19;;;22.69;56.23
76074;BME280;64776;42.636;24.358;2023-06-22T06:51:00;90714.59;;;22.74;54.34
76074;BME280;64776;42.636;24.358;2023-06-22T06:54:01;90711.41;;;22.83;55.95
76074;BME280;64776;42.636;24.358;2023-06-22T06:57:02;90713.78;;;22.86;54.71
76074;BME280;64776;42.636;24.358;2023-06-22T07:00:04;90709.50;;;22.98;54.41
76074;BME280;64776;42.636;24.358;2023-06-22T07:03:06;90712.13;;;23.11;54.78
76074;BME280;64776;42.636;24.358;2023-06-22T07:06:08;90710.41;;;23.29;54.46
76074;BME280;64776;42.636;24.358;2023-06-22T07:09:09;90714.41;;;23.28;54.12
76074;BME280;64776;42.636;24.358;2023-06-22T07:15:10;90720.25;;;23.32;52.07
76074;BME280;64776;42.636;24.358;2023-06-22T07:18:13;90715.94;;;23.44;52.43
76074;BME280;64776;42.636;24.358;2023-06-22T07:21:13;90720.38;;;23.62;51.55
76074;BME280;64776;42.636;24.358;2023-06-22T07:24:15;90718.75;;;23.59;51.50
76074;BME280;64776;42.636;24.358;2023-06-22T07:27:16;90711.63;;;23.56;52.56
76074;BME280;64776;42.636;24.358;2023-06-22T07:30:17;90716.81;;;23.82;52.12
76074;BME280;64776;42.636;24.358;2023-06-22T07:33:19;90716.19;;;24.04;49.88
76074;BME280;64776;42.636;24.358;2023-06-22T07:36:20;90713.28;;;24.17;49.76
76074;BME280;64776;42.636;24.358;2023-06-22T07:39:20;90720.25;;;24.41;48.58
76074;BME280;64776;42.636;24.358;2023-06-22T07:42:22;90710.06;;;24.49;48.98
76074;BME280;64776;42.636;24.358;2023-06-22T07:45:23;90714.63;;;24.62;49.59
76074;BME280;64776;42.636;24.358;2023-06-22T07:48:25;90716.47;;;24.74;49.70
76074;BME280;64776;42.636;24.358;2023-06-22T07:51:26;90711.34;;;24.71;47.71
76074;BME280;64776;42.636;24.358;2023-06-22T07:54:26;90709.00;;;24.75;48.51
76074;BME280;64776;42.636;24.358;2023-06-22T07:57:27;90710.44;;;24.76;50.30
76074;BME280;64776;42.636;24.358;2023-06-22T08:00:28;90709.69;;;24.68;46.66
76074;BME280;64776;42.636;24.358;2023-06-22T08:03:30;90708.22;;;25.04;47.85
76074;BME280;64776;42.636;24.358;2023-06-22T08:06:31;90707.84;;;25.08;47.21
76074;BME280;64776;42.636;24.358;2023-06-22T08:09:32;90707.69;;;24.98;46.88
76074;BME280;64776;42.636;24.358;2023-06-22T08:12:33;90708.63;;;25.01;46.15
76074;BME280;64776;42.636;24.358;2023-06-22T08:15:54;90719.16;;;25.12;47.22
76074;BME280;64776;42.636;24.358;2023-06-22T08:18:56;90715.34;;;25.08;45.71
76074;BME280;64776;42.636;24.358;2023-06-22T08:21:56;90718.00;;;25.45;47.08
76074;BME280;64776;42.636;24.358;2023-06-22T08:24:57;90712.91;;;25.34;44.75
76074;BME280;64776;42.636;24.358;2023-06-22T08:27:58;90717.91;;;25.06;44.60
76074;BME280;64776;42.636;24.358;2023-06-22T08:30:59;90719.13;;;25.42;47.21
76074;BME280;64776;42.636;24.358;2023-06-22T08:34:02;90729.06;;;25.62;44.40
76074;BME280;64776;42.636;24.358;2023-06-22T08:37:03;90730.41;;;25.46;45.04
76074;BME280;64776;42.636;24.358;2023-06-22T08:40:05;90719.94;;;25.67;44.20
76074;BME280;64776;42.636;24.358;2023-06-22T08:43:06;90719.34;;;25.76;45.85
76074;BME280;64776;42.636;24.358;2023-06-22T08:46:07;90719.00;;;25.80;44.18
76074;BME280;64776;42.636;24.358;2023-06-22T08:49:09;90718.88;;;26.03;44.95
76074;BME280;64776;42.636;24.358;2023-06-22T08:52:10;90715.06;;;25.98;44.52
76074;BME280;64776;42.636;24.358;2023-06-22T08:55:10;90713.88;;;25.76;44.53
76074;BME280;64776;42.636;24.358;2023-06-22T08:58:11;90714.50;;;26.00;44.58
76074;BME280;64776;42.636;24.358;2023-06-22T09:01:12;90714.91;;;25.96;43.77
76074;BME280;64776;42.636;24.358;2023-06-22T09:04:14;90720.91;;;25.47;45.49
76074;BME280;64776;42.636;24.358;2023-06-22T09:07:15;90721.22;;;25.66;44.49
76074;BME280;64776;42.636;24.358;2023-06-22T09:10:16;90721.28;;;25.91;43.56
76074;BME280;64776;42.636;24.358;2023-06-22T09:13:17;90713.38;;;26.10;43.41
76074;BME280;64776;42.636;24.358;2023-06-22T09:16:18;90710.91;;;25.90;44.45
76074;BME280;64776;42.636;24.358;2023-06-22T09:19:20;90720.53;;;25.51;44.19
76074;BME280;64776;42.636;24.358;2023-06-22T09:22:21;90715.44;;;25.55;43.59
76074;BME280;64776;42.636;24.358;2023-06-22T09:25:22;90714.63;;;25.77;46.12
76074;BME280;64776;42.636;24.358;2023-06-22T09:28:22;90703.22;;;25.96;44.73
76074;BME280;64776;42.636;24.358;2023-06-22T09:31:23;90707.78;;;26.33;43.76
76074;BME280;64776;42.636;24.358;2023-06-22T09:34:26;90709.03;;;26.39;44.23
76074;BME280;64776;42.636;24.358;2023-06-22T09:37:26;90713.34;;;26.18;44.20
76074;BME280;64776;42.636;24.358;2023-06-22T09:40:27;90723.28;;;25.36;44.74
76074;BME280;64776;42.636;24.358;2023-06-22T09:43:28;90716.56;;;25.29;46.36
76074;BME280;64776;42.636;24.358;2023-06-22T09:46:29;90711.84;;;25.84;45.49
76074;BME280;64776;42.636;24.358;2023-06-22T09:49:31;90709.06;;;26.56;42.95
76074;BME280;64776;42.636;24.358;2023-06-22T09:52:32;90704.66;;;26.61;42.63
76074;BME280;64776;42.636;24.358;2023-06-22T09:55:33;90702.72;;;26.54;42.92
76074;BME280;64776;42.636;24.358;2023-06-22T09:58:33;90699.34;;;26.88;42.77
76074;BME280;64776;42.636;24.358;2023-06-22T10:01:34;90714.31;;;27.11;41.66
76074;BME280;64776;42.636;24.358;2023-06-22T10:04:36;90706.34;;;27.74;42.16
76074;BME280;64776;42.636;24.358;2023-06-22T10:07:37;90699.06;;;27.86;41.86
76074;BME280;64776;42.636;24.358;2023-06-22T10:10:38;90693.22;;;27.73;39.54
76074;BME280;64776;42.636;24.358;2023-06-22T10:13:39;90701.28;;;27.88;39.59
76074;BME280;64776;42.636;24.358;2023-06-22T10:16:39;90693.25;;;28.16;40.44
76074;BME280;64776;42.636;24.358;2023-06-22T10:19:42;90695.28;;;27.99;40.03
76074;BME280;64776;42.636;24.358;2023-06-22T10:22:44;90697.00;;;27.77;38.94
76074;BME280;64776;42.636;24.358;2023-06-22T10:25:45;90681.38;;;28.41;37.89
76074;BME280;64776;42.636;24.358;2023-06-22T10:28:46;90688.81;;;28.21;36.55
76074;BME280;64776;42.636;24.358;2023-06-22T10:31:46;90690.00;;;27.84;38.82
76074;BME280;64776;42.636;24.358;2023-06-22T10:34:49;90683.34;;;28.04;40.86
76074;BME280;64776;42.636;24.358;2023-06-22T10:37:49;90695.53;;;27.76;39.06
76074;BME280;64776;42.636;24.358;2023-06-22T10:40:50;90686.47;;;27.39;39.22
76074;BME280;64776;42.636;24.358;2023-06-22T10:43:51;90689.63;;;27.53;41.41
76074;BME280;64776;42.636;24.358;2023-06-22T10:46:52;90678.03;;;27.03;42.02
76074;BME280;64776;42.636;24.358;2023-06-22T10:49:54;90687.50;;;26.36;41.77
76074;BME280;64776;42.636;24.358;2023-06-22T10:52:55;90683.56;;;26.96;39.79
76074;BME280;64776;42.636;24.358;2023-06-22T10:55:56;90685.44;;;26.93;40.48
76074;BME280;64776;42.636;24.358;2023-06-22T10:58:56;90676.75;;;27.21;40.10
76074;BME280;64776;42.636;24.358;2023-06-22T11:01:57;90676.72;;;28.07;39.50
76074;BME280;64776;42.636;24.358;2023-06-22T11:04:59;90676.28;;;27.84;39.08
76074;BME280;64776;42.636;24.358;2023-06-22T11:08:25;90680.91;;;28.08;39.35
76074;BME280;64776;42.636;24.358;2023-06-22T11:11:26;90684.41;;;28.45;38.31
76074;BME280;64776;42.636;24.358;2023-06-22T11:14:27;90684.56;;;28.73;36.98
76074;BME280;64776;42.636;24.358;2023-06-22T11:17:28;90686.28;;;28.69;37.39
76074;BME280;64776;42.636;24.358;2023-06-22T11:20:30;90682.88;;;28.25;36.56
76074;BME280;64776;42.636;24.358;2023-06-22T11:23:31;90694.38;;;27.70;37.22
76074;BME280;64776;42.636;24.358;2023-06-22T11:26:31;90688.69;;;27.68;39.22
76074;BME280;64776;42.636;24.358;2023-06-22T11:29:32;90682.19;;;27.46;40.69
76074;BME280;64776;42.636;24.358;2023-06-22T11:32:34;90683.31;;;27.26;41.91
76074;BME280;64776;42.636;24.358;2023-06-22T11:35:36;90684.38;;;27.48;39.59
76074;BME280;64776;42.636;24.358;2023-06-22T11:38:37;90686.53;;;27.66;40.24
76074;BME280;64776;42.636;24.358;2023-06-22T11:41:38;90685.78;;;27.31;39.71
76074;BME280;64776;42.636;24.358;2023-06-22T11:44:39;90685.63;;;27.29;42.45
76074;BME280;64776;42.636;24.358;2023-06-22T11:47:40;90679.88;;;27.43;41.74
76074;BME280;64776;42.636;24.358;2023-06-22T11:50:42;90681.16;;;27.59;40.90
76074;BME280;64776;42.636;24.358;2023-06-22T11:53:44;90679.19;;;27.52;43.23
76074;BME280;64776;42.636;24.358;2023-06-22T11:56:45;90676.59;;;27.02;41.44
76074;BME280;64776;42.636;24.358;2023-06-22T11:59:45;90674.69;;;26.88;42.57
76074;BME280;64776;42.636;24.358;2023-06-22T12:02:46;90673.50;;;26.98;43.31
76074;BME280;64776;42.636;24.358;2023-06-22T12:05:49;90679.53;;;26.55;42.68
76074;BME280;64776;42.636;24.358;2023-06-22T12:08:50;90673.78;;;26.43;43.01
76074;BME280;64776;42.636;24.358;2023-06-22T12:11:51;90688.88;;;26.20;43.32
76074;BME280;64776;42.636;24.358;2023-06-22T12:14:52;90689.34;;;26.09;44.06
76074;BME280;64776;42.636;24.358;2023-06-22T12:17:53;90685.81;;;26.16;44.36
76074;BME280;64776;42.636;24.358;2023-06-22T12:20:55;90686.81;;;25.96;43.90
76074;BME280;64776;42.636;24.358;2023-06-22T12:23:56;90688.84;;;25.55;45.06
76074;BME280;64776;42.636;24.358;2023-06-22T12:26:56;90690.13;;;25.39;45.99
76074;BME280;64776;42.636;24.358;2023-06-22T12:29:57;90688.84;;;25.33;45.77
76074;BME280;64776;42.636;24.358;2023-06-22T12:32:58;90692.88;;;25.32;45.81
76074;BME280;64776;42.636;24.358;2023-06-22T12:36:00;90694.88;;;25.31;46.91
76074;BME280;64776;42.636;24.358;2023-06-22T12:39:01;90693.47;;;25.15;45.84
76074;BME280;64776;42.636;24.358;2023-06-22T12:42:02;90686.38;;;25.12;45.95
76074;BME280;64776;42.636;24.358;2023-06-22T12:45:04;90687.28;;;25.07;46.42
76074;BME280;64776;42.636;24.358;2023-06-22T12:48:05;90683.16;;;24.91;48.41
76074;BME280;64776;42.636;24.358;2023-06-22T12:51:08;90690.44;;;24.81;47.95
76074;BME280;64776;42.636;24.358;2023-06-22T12:54:09;90683.88;;;24.91;47.90
76074;BME280;64776;42.636;24.358;2023-06-22T12:57:10;90685.50;;;24.72;48.91
76074;BME280;64776;42.636;24.358;2023-06-22T13:00:11;90678.41;;;24.84;48.21
76074;BME280;64776;42.636;24.358;2023-06-22T13:03:12;90677.31;;;24.94;47.20
76074;BME280;64776;42.636;24.358;2023-06-22T13:06:14;90674.72;;;25.12;48.63
76074;BME280;64776;42.636;24.358;2023-06-22T13:09:17;90668.94;;;25.62;47.16
76074;BME280;64776;42.636;24.358;2023-06-22T13:12:17;90666.13;;;25.77;46.10
76074;BME280;64776;42.636;24.358;2023-06-22T13:15:18;90671.34;;;25.91;45.46
76074;BME280;64776;42.636;24.358;2023-06-22T13:18:19;90666.38;;;25.97;46.42
76074;BME280;64776;42.636;24.358;2023-06-22T13:21:21;90669.88;;;26.29;46.07
76074;BME280;64776;42.636;24.358;2023-06-22T13:24:22;90663.09;;;26.55;45.77
76074;BME280;64776;42.636;24.358;2023-06-22T13:27:23;90663.91;;;26.90;43.05
76074;BME280;64776;42.636;24.358;2023-06-22T13:30:24;90659.19;;;26.41;42.55
76074;BME280;64776;42.636;24.358;2023-06-22T13:33:25;90662.88;;;26.04;45.08
76074;BME280;64776;42.636;24.358;2023-06-22T13:36:27;90670.88;;;25.77;46.48
76074;BME280;64776;42.636;24.358;2023-06-22T13:39:28;90668.47;;;25.81;44.53
76074;BME280;64776;42.636;24.358;2023-06-22T13:42:28;90672.84;;;25.84;47.46
76074;BME280;64776;42.636;24.358;2023-06-22T13:45:29;90669.03;;;25.79;46.60
76074;BME280;64776;42.636;24.358;2023-06-22T13:48:30;90672.44;;;25.55;47.32
76074;BME280;64776;42.636;24.358;2023-06-22T13:51:32;90668.63;;;25.43;47.90
76074;BME280;64776;42.636;24.358;2023-06-22T13:54:33;90672.25;;;25.53;48.81
76074;BME280;64776;42.636;24.358;2023-06-22T13:57:34;90671.00;;;25.47;48.88
76074;BME280;64776;42.636;24.358;2023-06-22T14:00:35;90665.91;;;25.43;48.28
76074;BME280;64776;42.636;24.358;2023-06-22T14:03:35;90672.94;;;24.99;48.70
76074;BME280;64776;42.636;24.358;2023-06-22T14:06:38;90664.31;;;25.25;49.83
76074;BME280;64776;42.636;24.358;2023-06-22T14:09:38;90656.63;;;25.46;48.50
76074;BME280;64776;42.636;24.358;2023-06-22T14:12:41;90665.84;;;25.58;48.78
76074;BME280;64776;42.636;24.358;2023-06-22T14:15:44;90655.88;;;25.86;47.69
76074;BME280;64776;42.636;24.358;2023-06-22T14:18:45;90648.19;;;25.92;47.58
76074;BME280;64776;42.636;24.358;2023-06-22T14:21:47;90649.72;;;25.77;47.94
76074;BME280;64776;42.636;24.358;2023-06-22T14:24:48;90660.38;;;25.58;47.92
76074;BME280;64776;42.636;24.358;2023-06-22T14:27:49;90654.34;;;25.67;48.38
76074;BME280;64776;42.636;24.358;2023-06-22T14:30:50;90653.09;;;25.53;48.56
76074;BME280;64776;42.636;24.358;2023-06-22T14:33:51;90648.41;;;25.86;49.87
76074;BME280;64776;42.636;24.358;2023-06-22T14:36:53;90645.72;;;26.03;47.06
76074;BME280;64776;42.636;24.358;2023-06-22T14:39:53;90638.19;;;26.43;49.45
76074;BME280;64776;42.636;24.358;2023-06-22T14:42:55;90641.63;;;26.93;45.46
76074;BME280;64776;42.636;24.358;2023-06-22T14:45:56;90633.41;;;27.10;44.20
76074;BME280;64776;42.636;24.358;2023-06-22T14:48:57;90635.38;;;26.76;44.00
76074;BME280;64776;42.636;24.358;2023-06-22T14:51:59;90638.91;;;26.69;44.13
76074;BME280;64776;42.636;24.358;2023-06-22T14:55:00;90634.63;;;26.09;44.87
76074;BME280;64776;42.636;24.358;2023-06-22T14:58:01;90637.06;;;26.22;46.11
76074;BME280;64776;42.636;24.358;2023-06-22T15:01:02;90647.25;;;26.29;44.71
76074;BME280;64776;42.636;24.358;2023-06-22T15:04:03;90645.06;;;25.63;46.38
76074;BME280;64776;42.636;24.358;2023-06-22T15:07:05;90641.13;;;25.41;47.31
76074;BME280;64776;42.636;24.358;2023-06-22T15:10:07;90633.50;;;25.32;47.69
76074;BME280;64776;42.636;24.358;2023-06-22T15:13:09;90637.56;;;25.16;48.47
76074;BME280;64776;42.636;24.358;2023-06-22T15:16:10;90635.91;;;25.28;47.88
76074;BME280;64776;42.636;24.358;2023-06-22T15:19:11;90644.03;;;25.43;47.86
76074;BME280;64776;42.636;24.358;2023-06-22T15:22:13;90640.75;;;25.37;48.38
76074;BME280;64776;42.636;24.358;2023-06-22T15:25:14;90644.97;;;25.38;47.86
76074;BME280;64776;42.636;24.358;2023-06-22T15:28:14;90644.63;;;25.27;47.49
76074;BME280;64776;42.636;24.358;2023-06-22T15:31:15;90644.50;;;25.02;47.34
76074;BME280;64776;42.636;24.358;2023-06-22T15:34:16;90651.25;;;25.01;48.62
76074;BME280;64776;42.636;24.358;2023-06-22T15:37:18;90641.88;;;25.34;48.12
76074;BME280;64776;42.636;24.358;2023-06-22T15:40:19;90641.31;;;25.36;47.82
76074;BME280;64776;42.636;24.358;2023-06-22T15:43:20;90648.00;;;25.57;47.95
76074;BME280;64776;42.636;24.358;2023-06-22T15:46:21;90639.94;;;25.67;47.93
76074;BME280;64776;42.636;24.358;2023-06-22T15:49:22;90637.94;;;25.67;47.73
76074;BME280;64776;42.636;24.358;2023-06-22T15:52:24;90640.38;;;25.48;47.41